Time;durP1;ratioP1;P1;durP2;ratioP2;P2;SDS_P1;SDS_P2;PMS_P1;PMS_P2;Temp;Humidity;BMP_temperature;BMP_pressure;BME280_temperature;BME280_humidity;BME280_pressure;Samples;Min_cycle;Max_cycle;Signal;HPM_P1;HPM_P2
2022/04/18 00:02:23;;;;;;;0.50;0.50;;;;;;;7.14;77.64;91752.84;6186349;23;20371;-75
2022/04/18 00:04:50;;;;;;;0.50;0.50;;;;;;;7.28;77.05;91758.06;6188399;23;20147;-75
2022/04/18 00:07:18;;;;;;;0.50;0.50;;;;;;;7.29;76.34;91760.53;6185404;23;20407;-75
2022/04/18 00:09:46;;;;;;;0.40;0.40;;;;;;;7.38;76.27;91759.31;6186136;23;20205;-75
2022/04/18 00:12:13;;;;;;;0.40;0.40;;;;;;;7.20;76.90;91745.88;6187036;23;20486;-75
2022/04/18 00:14:42;;;;;;;0.43;0.43;;;;;;;7.37;76.41;91763.53;6185622;23;20414;-75
2022/04/18 00:17:10;;;;;;;0.40;0.40;;;;;;;6.80;75.86;91691.56;6185661;23;20519;-75
2022/04/18 00:19:38;;;;;;;0.50;0.50;;;;;;;7.04;76.28;91719.81;6185466;23;20600;-75
2022/04/18 00:22:07;;;;;;;0.50;0.50;;;;;;;7.31;76.91;91757.97;6187593;23;20455;-75
2022/04/18 00:24:35;;;;;;;0.30;0.30;;;;;;;7.02;78.22;91724.06;6186043;23;20523;-75
2022/04/18 00:27:02;;;;;;;0.53;0.53;;;;;;;7.09;77.90;91722.94;6185342;23;20606;-75
2022/04/18 00:29:30;;;;;;;0.80;0.80;;;;;;;7.08;77.43;91699.50;6185782;23;20550;-75
2022/04/18 00:31:58;;;;;;;1.10;0.80;;;;;;;7.23;77.30;91710.56;6185747;23;20483;-75
2022/04/18 00:34:26;;;;;;;0.57;0.53;;;;;;;6.68;76.93;91658.66;6185321;23;20520;-76
2022/04/18 00:36:53;;;;;;;0.60;0.60;;;;;;;6.75;76.99;91663.34;6186218;23;20416;-75
2022/04/18 00:39:21;;;;;;;0.50;0.50;;;;;;;7.26;77.99;91755.66;6186115;23;20429;-75
2022/04/18 00:41:49;;;;;;;0.50;0.50;;;;;;;6.92;76.99;91688.53;6185382;23;20154;-75
2022/04/18 00:44:16;;;;;;;0.80;0.80;;;;;;;7.02;75.96;91688.94;6186333;23;20515;-75
2022/04/18 00:46:43;;;;;;;0.60;0.60;;;;;;;7.15;76.33;91735.22;6184816;23;20205;-75
2022/04/18 00:49:12;;;;;;;0.77;0.77;;;;;;;7.15;76.48;91690.00;6185289;23;20527;-75
2022/04/18 00:51:40;;;;;;;0.73;0.73;;;;;;;7.35;76.40;91742.69;6187774;23;20177;-75
2022/04/18 00:54:07;;;;;;;1.70;0.70;;;;;;;7.37;75.94;91742.63;6185582;23;20499;-75
2022/04/18 00:56:34;;;;;;;3.30;0.80;;;;;;;6.52;77.13;91636.75;6186109;23;20514;-75
2022/04/18 00:59:02;;;;;;;0.60;0.60;;;;;;;6.68;77.68;91633.56;6185678;23;20532;-75
2022/04/18 01:01:30;;;;;;;1.00;1.00;;;;;;;7.29;77.32;91727.88;6184888;23;20476;-75
2022/04/18 01:03:58;;;;;;;0.60;0.60;;;;;;;6.76;77.28;91649.09;6185584;23;20268;-75
2022/04/18 01:06:26;;;;;;;0.70;0.70;;;;;;;7.12;77.77;91696.84;6185171;23;20469;-75
2022/04/18 01:08:54;;;;;;;0.57;0.57;;;;;;;6.84;76.71;91688.03;6185355;23;20421;-75
2022/04/18 01:11:21;;;;;;;0.50;0.50;;;;;;;6.57;76.95;91646.56;6185425;23;20209;-75
2022/04/18 01:13:49;;;;;;;0.80;0.80;;;;;;;7.17;76.87;91713.34;6185900;23;20401;-75
2022/04/18 01:16:17;;;;;;;0.93;0.93;;;;;;;6.66;76.78;91624.38;6185599;23;20420;-75
2022/04/18 01:18:45;;;;;;;0.67;0.67;;;;;;;7.22;77.94;91718.16;6186656;23;20190;-75
2022/04/18 01:21:19;;;;;;;0.50;0.50;;;;;;;7.38;76.37;91737.50;6186189;23;20582;-76
2022/04/18 01:23:47;;;;;;;0.50;0.50;;;;;;;7.25;75.61;91731.41;6185484;23;20416;-75
2022/04/18 01:29:00;;;;;;;0.73;0.73;;;;;;;6.71;76.45;91640.94;6185411;23;20412;-75
2022/04/18 01:31:28;;;;;;;0.50;0.50;;;;;;;6.75;76.60;91648.28;6186680;23;20597;-75
2022/04/18 01:33:56;;;;;;;0.60;0.60;;;;;;;7.18;76.64;91714.97;6185030;23;20237;-75
2022/04/18 01:36:25;;;;;;;1.00;0.93;;;;;;;6.94;76.30;91655.78;6185241;23;20582;-75
2022/04/18 01:38:53;;;;;;;0.73;0.73;;;;;;;6.77;75.34;91638.97;6186563;23;20460;-76
2022/04/18 01:41:20;;;;;;;0.40;0.40;;;;;;;6.85;75.13;91668.75;6185045;23;20408;-75
2022/04/18 01:43:48;;;;;;;0.50;0.50;;;;;;;6.95;75.08;91670.81;6186071;23;20445;-75
2022/04/18 01:46:16;;;;;;;0.50;0.50;;;;;;;7.17;74.46;91717.56;6184555;23;20441;-76
2022/04/18 01:48:44;;;;;;;0.50;0.50;;;;;;;7.05;74.98;91702.16;6185026;23;20543;-75
2022/04/18 01:51:11;;;;;;;0.70;0.70;;;;;;;6.75;75.61;91645.78;6184838;23;20272;-75
2022/04/18 01:53:40;;;;;;;0.40;0.40;;;;;;;7.25;76.43;91701.28;6186393;23;20445;-75
2022/04/18 01:56:08;;;;;;;0.50;0.50;;;;;;;7.10;75.68;91679.34;6185344;23;20413;-75
2022/04/18 01:58:35;;;;;;;0.47;0.47;;;;;;;6.77;75.64;91633.13;6186115;23;20543;-75
2022/04/18 02:01:03;;;;;;;0.40;0.40;;;;;;;7.27;75.04;91696.16;6186743;23;20421;-75
2022/04/18 02:03:30;;;;;;;0.50;0.50;;;;;;;7.10;77.83;91674.31;6185433;23;20235;-75
2022/04/18 02:05:58;;;;;;;0.40;0.40;;;;;;;6.89;78.25;91660.22;6185202;23;20566;-76
2022/04/18 02:08:26;;;;;;;0.60;0.60;;;;;;;6.80;75.44;91620.47;6184967;23;20448;-75
2022/04/18 02:10:55;;;;;;;0.47;0.47;;;;;;;7.47;74.70;91694.38;6184588;23;20424;-75
2022/04/18 02:13:22;;;;;;;0.47;0.47;;;;;;;7.50;74.86;91685.88;6186030;23;20585;-75
2022/04/18 02:15:50;;;;;;;0.50;0.50;;;;;;;7.57;73.42;91696.47;6185775;23;20397;-75
2022/04/18 02:18:17;;;;;;;0.67;0.67;;;;;;;7.32;73.52;91636.50;6185287;23;20154;-75
2022/04/18 02:20:45;;;;;;;0.50;0.50;;;;;;;7.37;73.54;91627.06;6186834;23;20374;-75
2022/04/18 02:23:12;;;;;;;0.43;0.43;;;;;;;7.50;72.51;91664.09;6186801;23;20566;-75
2022/04/18 02:25:39;;;;;;;0.50;0.50;;;;;;;7.62;71.97;91697.06;6186390;23;20531;-76
2022/04/18 02:28:08;;;;;;;0.60;0.60;;;;;;;7.53;72.99;91654.78;6187492;23;20568;-75
2022/04/18 02:30:36;;;;;;;0.50;0.50;;;;;;;7.60;73.56;91687.09;6187036;23;20440;-76
2022/04/18 02:33:03;;;;;;;0.60;0.60;;;;;;;7.69;74.20;91696.72;6187122;23;20495;-75
2022/04/18 02:35:30;;;;;;;0.60;0.60;;;;;;;7.72;73.62;91705.81;6187190;23;20359;-75
2022/04/18 02:37:58;;;;;;;1.67;1.57;;;;;;;7.45;72.57;91663.47;6186534;23;20194;-75
2022/04/18 02:40:25;;;;;;;0.90;0.90;;;;;;;7.76;73.69;91694.75;6187149;23;20169;-75
2022/04/18 02:42:52;;;;;;;0.83;0.83;;;;;;;7.36;73.06;91637.97;6186635;23;20621;-75
2022/04/18 02:45:21;;;;;;;0.50;0.50;;;;;;;7.73;74.73;91682.28;6186854;23;20537;-75
2022/04/18 02:47:50;;;;;;;0.70;0.70;;;;;;;7.56;74.17;91657.13;6186856;23;20504;-75
2022/04/18 02:50:18;;;;;;;1.10;1.00;;;;;;;7.57;74.92;91659.59;6187186;23;20593;-75
2022/04/18 02:52:45;;;;;;;1.83;1.07;;;;;;;7.30;72.27;91631.53;6186492;23;20597;-75
2022/04/18 02:55:12;;;;;;;0.63;0.63;;;;;;;7.42;72.35;91653.59;6186596;23;20403;-76
2022/04/18 02:57:41;;;;;;;0.67;0.67;;;;;;;7.09;72.16;91597.38;6186969;23;20159;-75
2022/04/18 03:00:10;;;;;;;1.80;1.27;;;;;;;7.40;72.40;91650.31;6186649;23;20390;-75
2022/04/18 03:02:39;;;;;;;1.03;1.03;;;;;;;7.11;72.36;91605.63;6186705;23;20371;-76
2022/04/18 03:05:09;;;;;;;0.50;0.50;;;;;;;7.31;72.74;91634.88;6186206;23;20237;-76
2022/04/18 03:07:37;;;;;;;0.83;0.83;;;;;;;7.22;74.21;91636.09;6187972;23;20470;-75
2022/04/18 03:10:06;;;;;;;0.87;0.87;;;;;;;7.58;73.55;91668.75;6186854;23;20527;-75
2022/04/18 03:12:34;;;;;;;0.77;0.77;;;;;;;7.30;72.56;91654.16;6186219;23;20218;-75
2022/04/18 03:15:01;;;;;;;0.53;0.53;;;;;;;7.46;72.61;91681.88;6186365;23;20466;-75
2022/04/18 03:17:29;;;;;;;1.07;1.07;;;;;;;7.21;73.27;91671.34;6186297;23;20587;-75
2022/04/18 03:19:57;;;;;;;0.70;0.70;;;;;;;7.06;73.62;91630.13;6186860;23;20217;-75
2022/04/18 03:22:25;;;;;;;5.00;1.17;;;;;;;6.48;74.14;91569.22;6186084;23;20447;-75
2022/04/18 03:24:54;;;;;;;1.70;1.60;;;;;;;6.92;74.70;91617.41;6186272;23;20217;-75
2022/04/18 03:27:21;;;;;;;1.13;1.13;;;;;;;6.89;74.48;91623.38;6186396;23;20162;-75
2022/04/18 03:29:49;;;;;;;1.10;1.10;;;;;;;6.60;73.97;91593.72;6186471;23;20546;-75
2022/04/18 03:32:16;;;;;;;0.80;0.80;;;;;;;6.96;73.63;91654.84;6185968;23;20511;-75
2022/04/18 03:34:44;;;;;;;1.30;1.27;;;;;;;6.97;73.51;91653.16;6186540;23;20405;-75
2022/04/18 03:39:57;;;;;;;2.60;2.50;;;;;;;6.48;74.67;91572.50;6186422;23;20546;-75
2022/04/18 03:42:32;;;;;;;1.43;1.43;;;;;;;6.69;74.69;91593.34;6187325;23;20559;-75
2022/04/18 03:45:01;;;;;;;1.00;1.00;;;;;;;6.85;73.46;91613.53;6187535;23;20451;-75
2022/04/18 03:47:29;;;;;;;1.57;1.50;;;;;;;6.74;73.75;91605.69;6186034;23;20409;-75
2022/04/18 03:49:57;;;;;;;2.13;1.80;;;;;;;6.76;74.39;91624.78;6185998;23;20397;-75
2022/04/18 03:52:26;;;;;;;2.50;2.43;;;;;;;7.04;74.35;91652.81;6185340;23;20482;-74
2022/04/18 03:54:54;;;;;;;2.40;2.30;;;;;;;6.86;74.71;91640.28;6185999;23;20221;-74
2022/04/18 03:57:21;;;;;;;2.87;2.63;;;;;;;6.71;76.73;91610.81;6186913;23;20562;-74
2022/04/18 03:59:49;;;;;;;2.17;2.07;;;;;;;6.44;78.12;91581.06;6188300;23;20155;-75
2022/04/18 04:02:17;;;;;;;1.30;1.20;;;;;;;6.97;78.33;91640.63;6185389;23;20539;-74
2022/04/18 04:04:44;;;;;;;2.87;1.83;;;;;;;6.79;76.75;91628.88;6186514;23;20468;-75
2022/04/18 04:07:12;;;;;;;2.37;2.17;;;;;;;7.21;74.88;91668.84;6187007;23;20435;-75
2022/04/18 04:09:41;;;;;;;2.40;2.30;;;;;;;7.14;74.90;91619.75;6186892;23;20468;-75
2022/04/18 04:12:09;;;;;;;2.83;2.47;;;;;;;7.28;76.51;91658.41;6185796;23;20473;-75
2022/04/18 04:14:36;;;;;;;2.60;2.50;;;;;;;7.20;73.99;91642.09;6185655;23;20519;-75
2022/04/18 04:17:04;;;;;;;2.60;2.50;;;;;;;7.30;76.64;91640.78;6186263;23;20610;-75
2022/04/18 04:19:31;;;;;;;2.33;2.23;;;;;;;7.37;77.03;91649.66;6185689;23;20190;-74
2022/04/18 04:22:00;;;;;;;2.50;2.37;;;;;;;7.38;77.40;91662.13;6185547;23;20367;-74
2022/04/18 04:24:27;;;;;;;4.40;3.13;;;;;;;7.13;76.58;91608.06;6186964;23;20507;-75
2022/04/18 04:26:56;;;;;;;5.40;4.37;;;;;;;7.59;73.94;91669.56;6186210;23;20177;-74
2022/04/18 04:29:23;;;;;;;6.07;5.47;;;;;;;7.02;72.99;91598.53;6184383;23;20221;-76
2022/04/18 04:31:51;;;;;;;3.47;2.40;;;;;;;7.04;75.53;91601.78;6185134;23;20485;-76
2022/04/18 04:34:18;;;;;;;4.87;4.63;;;;;;;7.01;75.69;91576.81;6184684;23;20472;-75
2022/04/18 04:36:46;;;;;;;2.23;2.13;;;;;;;6.80;76.14;91590.34;6185424;23;20603;-74
2022/04/18 04:39:13;;;;;;;3.63;1.83;;;;;;;7.19;77.07;91663.88;6185307;23;20436;-75
2022/04/18 04:41:40;;;;;;;2.50;2.13;;;;;;;7.24;76.08;91656.13;6184522;23;20463;-74
2022/04/18 04:44:10;;;;;;;10.83;8.30;;;;;;;7.21;76.09;91624.41;6185463;23;20504;-74
2022/04/18 04:47:05;;;;;;;5.10;3.43;;;;;;;7.66;75.65;91675.94;6179609;23;20445;-76
2022/04/18 04:49:33;;;;;;;3.30;2.90;;;;;;;7.42;75.91;91673.69;6123463;23;20411;-74
2022/04/18 04:52:00;;;;;;;7.33;2.23;;;;;;;6.87;75.94;91619.31;6124723;23;20624;-75
2022/04/18 04:54:28;;;;;;;2.60;2.40;;;;;;;6.81;76.90;91668.09;6125289;23;20487;-75
2022/04/18 04:56:55;;;;;;;3.43;3.27;;;;;;;6.59;75.91;91628.03;6125245;23;20539;-75
2022/04/18 04:59:24;;;;;;;4.00;3.73;;;;;;;7.06;77.63;91667.81;6124831;23;20446;-76
2022/04/18 05:01:52;;;;;;;3.70;3.50;;;;;;;6.81;78.82;91665.59;6125389;23;20460;-77
2022/04/18 05:04:19;;;;;;;6.37;5.77;;;;;;;6.71;79.35;91649.28;6124610;23;20178;-75
2022/04/18 05:06:46;;;;;;;4.10;3.77;;;;;;;6.36;80.25;91578.09;6123890;23;20187;-75
2022/04/18 05:09:14;;;;;;;4.90;4.10;;;;;;;6.61;80.49;91628.81;6122870;23;20178;-76
2022/04/18 05:11:41;;;;;;;4.17;3.93;;;;;;;6.93;77.59;91664.22;6122451;23;20473;-75
2022/04/18 05:14:09;;;;;;;5.00;4.40;;;;;;;6.46;76.73;91606.09;6124124;23;20525;-75
2022/04/18 05:16:38;;;;;;;3.80;3.60;;;;;;;6.65;79.17;91616.91;6123538;23;20179;-77
2022/04/18 05:19:05;;;;;;;3.87;3.57;;;;;;;6.96;78.43;91682.47;6123294;23;20595;-75
2022/04/18 05:21:32;;;;;;;6.33;5.93;;;;;;;6.94;78.72;91670.84;6125181;23;20190;-75
2022/04/18 05:24:01;;;;;;;3.87;3.67;;;;;;;6.89;77.35;91683.63;6125442;23;20368;-75
2022/04/18 05:26:29;;;;;;;3.60;3.50;;;;;;;6.36;76.04;91620.72;6125158;23;20615;-75
2022/04/18 05:28:56;;;;;;;6.33;5.87;;;;;;;6.47;79.00;91598.50;6124941;23;20544;-75
2022/04/18 05:31:23;;;;;;;5.20;4.83;;;;;;;7.35;76.16;91689.09;6124890;23;20595;-75
2022/04/18 05:33:52;;;;;;;4.27;3.97;;;;;;;7.66;75.03;91703.59;6124980;23;20442;-76
2022/04/18 05:36:20;;;;;;;4.47;3.87;;;;;;;7.66;74.84;91696.84;6124114;23;20510;-74
2022/04/18 05:38:47;;;;;;;5.17;4.00;;;;;;;7.55;73.55;91705.78;6125560;23;20446;-74
2022/04/18 05:41:14;;;;;;;4.83;4.43;;;;;;;7.39;74.25;91673.00;6125663;23;20187;-74
2022/04/18 05:43:42;;;;;;;6.17;4.17;;;;;;;7.41;74.17;91679.59;6124275;23;20532;-76
2022/04/18 05:46:09;;;;;;;3.53;3.37;;;;;;;7.59;74.15;91717.31;6124443;23;20648;-75
2022/04/18 05:48:37;;;;;;;2.47;2.03;;;;;;;7.61;73.93;91713.03;6163079;23;20483;-74
2022/04/18 05:51:05;;;;;;;1.97;1.97;;;;;;;7.57;74.19;91687.22;6184597;23;20489;-74
2022/04/18 05:53:33;;;;;;;3.63;3.43;;;;;;;7.13;74.78;91626.47;6185461;23;20626;-73
2022/04/18 05:56:00;;;;;;;1.90;1.80;;;;;;;7.16;73.56;91643.91;6187341;23;20422;-74
2022/04/18 05:58:28;;;;;;;2.50;1.87;;;;;;;7.55;73.78;91700.78;6186874;23;20495;-76
2022/04/18 06:00:57;;;;;;;1.80;1.70;;;;;;;7.48;74.90;91672.59;6186442;23;20710;-74
2022/04/18 06:03:24;;;;;;;2.27;2.03;;;;;;;7.11;74.44;91637.47;6186438;23;20417;-74
2022/04/18 06:05:52;;;;;;;3.80;2.33;;;;;;;7.16;76.34;91641.38;6186859;23;20532;-74
2022/04/18 06:08:23;;;;;;;7.80;3.67;;;;;;;7.40;73.80;91664.59;6186373;23;20527;-74
2022/04/18 06:10:50;;;;;;;3.37;3.17;;;;;;;7.40;74.19;91687.19;6186310;23;20529;-75
2022/04/18 06:13:19;;;;;;;1.57;1.57;;;;;;;7.89;72.31;91718.41;6185110;23;20629;-75
2022/04/18 06:15:47;;;;;;;2.77;2.07;;;;;;;7.80;72.67;91681.94;6186003;23;20543;-77
2022/04/18 06:18:15;;;;;;;2.93;2.83;;;;;;;7.79;71.51;91675.28;6186276;23;20528;-74
2022/04/18 06:20:42;;;;;;;3.93;2.30;;;;;;;7.74;69.15;91721.63;6186818;23;20177;-74
2022/04/18 06:23:09;;;;;;;3.20;3.03;;;;;;;7.18;71.88;91654.69;6186054;23;20162;-74
2022/04/18 06:25:38;;;;;;;2.50;2.40;;;;;;;7.47;70.32;91681.00;6186338;23;20534;-74
2022/04/18 06:28:06;;;;;;;4.30;3.97;;;;;;;7.83;70.28;91727.03;6185609;23;20240;-74
2022/04/18 06:30:33;;;;;;;4.80;4.50;;;;;;;8.08;70.61;91726.72;6186455;23;20470;-75
2022/04/18 06:33:01;;;;;;;4.17;3.80;;;;;;;7.91;71.32;91687.28;6187429;23;20414;-75
2022/04/18 06:35:28;;;;;;;3.83;3.50;;;;;;;8.15;68.99;91740.63;6186349;23;20154;-76
2022/04/18 06:37:56;;;;;;;2.97;2.77;;;;;;;7.85;71.10;91656.56;6186160;23;20414;-76
2022/04/18 06:40:23;;;;;;;2.43;2.33;;;;;;;8.06;68.83;91685.72;6185552;23;20399;-75
2022/04/18 06:42:52;;;;;;;3.10;3.00;;;;;;;8.43;67.53;91742.66;6185698;23;20154;-75
2022/04/18 06:45:19;;;;;;;3.13;2.93;;;;;;;7.90;68.60;91668.03;6186221;23;20158;-75
2022/04/18 06:47:46;;;;;;;5.70;3.60;;;;;;;8.33;68.12;91744.00;6186795;23;20484;-76
2022/04/18 06:50:14;;;;;;;3.67;3.10;;;;;;;8.18;68.24;91695.19;6185853;23;20458;-76
2022/04/18 06:52:44;;;;;;;1.60;1.60;;;;;;;8.41;67.09;91751.97;6186100;23;20182;-76
2022/04/18 06:55:11;;;;;;;4.07;3.77;;;;;;;8.22;67.38;91716.81;6186943;23;20478;-77
2022/04/18 06:57:38;;;;;;;4.30;4.00;;;;;;;8.47;68.95;91736.59;6185736;23;20472;-75
2022/04/18 07:00:09;;;;;;;2.40;2.30;;;;;;;8.47;69.02;91743.31;6186023;23;20454;-78
2022/04/18 07:02:36;;;;;;;3.30;3.20;;;;;;;8.18;69.50;91737.13;6186125;23;20461;-76
2022/04/18 07:05:04;;;;;;;5.77;3.40;;;;;;;8.11;70.10;91738.34;6185807;23;20431;-77
2022/04/18 07:07:31;;;;;;;3.80;3.60;;;;;;;8.09;70.29;91725.84;6183741;23;20155;-78
2022/04/18 07:09:58;;;;;;;42.27;12.93;;;;;;;7.57;69.91;91677.19;6183206;23;20603;-79
2022/04/18 07:12:26;;;;;;;24.17;9.83;;;;;;;7.66;69.67;91678.47;6183516;23;20419;-76
2022/04/18 07:14:54;;;;;;;2.30;2.10;;;;;;;7.58;69.59;91647.84;6185931;23;20193;-75
2022/04/18 07:17:22;;;;;;;2.37;2.27;;;;;;;8.09;69.92;91732.56;6184849;23;20415;-74
2022/04/18 07:19:50;;;;;;;31.73;15.83;;;;;;;8.08;68.59;91756.06;6184272;23;20221;-78
2022/04/18 07:22:17;;;;;;;21.17;12.90;;;;;;;7.74;67.92;91693.97;6184904;23;20391;-78
2022/04/18 07:24:45;;;;;;;4.50;4.03;;;;;;;7.68;67.38;91689.25;6185261;23;20423;-78
2022/04/18 07:27:12;;;;;;;2.60;2.40;;;;;;;8.33;66.81;91759.09;6185729;23;20504;-80
2022/04/18 07:29:40;;;;;;;3.30;2.93;;;;;;;8.30;65.94;91762.56;6185970;23;20155;-81
2022/04/18 07:32:09;;;;;;;3.60;3.30;;;;;;;8.51;65.52;91772.47;6185390;23;20196;-78
2022/04/18 07:34:37;;;;;;;5.00;4.50;;;;;;;8.39;65.93;91735.34;6186275;23;20507;-78
2022/04/18 07:37:06;;;;;;;0.93;0.93;;;;;;;7.84;63.94;91722.84;6185612;23;20171;-77
2022/04/18 07:39:33;;;;;;;1.47;1.47;;;;;;;7.66;65.29;91719.47;6184117;23;20406;-80
2022/04/18 07:42:00;;;;;;;2.33;2.23;;;;;;;8.26;65.54;91763.56;6185251;23;20383;-76
2022/04/18 07:44:28;;;;;;;1.80;1.57;;;;;;;8.28;65.53;91769.31;6185838;23;20621;-76
2022/04/18 07:46:55;;;;;;;1.27;1.27;;;;;;;8.18;63.86;91790.78;6186586;23;20225;-76
2022/04/18 07:49:23;;;;;;;5.27;4.77;;;;;;;8.11;65.58;91744.16;6184979;23;20521;-76
2022/04/18 07:51:54;;;;;;;1.40;1.40;;;;;;;8.51;63.05;91792.59;6184960;23;20467;-75
2022/04/18 07:54:23;;;;;;;1.43;1.33;;;;;;;8.34;63.15;91787.59;6182935;23;20500;-76
2022/04/18 07:56:51;;;;;;;0.93;0.93;;;;;;;8.35;61.97;91807.63;6183440;23;20527;-76
2022/04/18 07:59:18;;;;;;;1.60;1.57;;;;;;;7.88;62.76;91754.50;6182207;23;20462;-75
2022/04/18 08:01:46;;;;;;;2.43;2.27;;;;;;;8.03;63.88;91760.50;6184763;23;20539;-77
2022/04/18 08:04:13;;;;;;;2.67;2.57;;;;;;;8.13;63.17;91780.13;6185025;23;20261;-78
2022/04/18 08:06:41;;;;;;;28.17;10.27;;;;;;;8.30;64.10;91789.44;6178817;23;20527;-76
2022/04/18 08:09:10;;;;;;;6.93;5.20;;;;;;;8.07;63.13;91736.84;6178669;23;20512;-76
2022/04/18 08:11:37;;;;;;;54.70;14.70;;;;;;;8.11;63.46;91759.25;6180876;23;20194;-75
2022/04/18 08:14:05;;;;;;;46.90;16.93;;;;;;;8.11;65.10;91750.91;6182666;23;20614;-76
2022/04/18 08:16:32;;;;;;;47.63;18.67;;;;;;;8.19;66.45;91768.97;6180779;23;20154;-76
2022/04/18 08:19:00;;;;;;;18.03;11.40;;;;;;;7.95;66.36;91767.59;6181190;23;20420;-77
2022/04/18 08:21:27;;;;;;;4.73;4.33;;;;;;;8.00;66.41;91775.75;6181592;23;20434;-75
2022/04/18 08:23:55;;;;;;;22.47;15.77;;;;;;;7.82;66.67;91752.28;6183876;23;20535;-76
2022/04/18 08:26:24;;;;;;;3.37;3.17;;;;;;;7.56;66.40;91713.25;6185076;23;20154;-75
2022/04/18 08:28:51;;;;;;;3.63;3.43;;;;;;;8.05;67.69;91779.69;6184733;23;20426;-75
2022/04/18 08:31:19;;;;;;;1.87;1.77;;;;;;;7.60;68.06;91726.50;6185382;23;20177;-76
2022/04/18 08:33:46;;;;;;;2.77;2.67;;;;;;;7.91;68.54;91782.00;6185054;23;20621;-75
2022/04/18 08:36:14;;;;;;;1.67;1.63;;;;;;;7.07;67.65;91699.56;6184448;23;20481;-74
2022/04/18 08:38:41;;;;;;;0.70;0.70;;;;;;;7.18;68.91;91774.44;6184017;23;20684;-75
2022/04/18 08:41:12;;;;;;;1.00;1.00;;;;;;;7.35;69.06;91784.56;6184698;23;20550;-75
2022/04/18 08:43:42;;;;;;;1.00;1.00;;;;;;;7.44;69.77;91782.44;6185373;23;20240;-75
2022/04/18 08:46:11;;;;;;;1.47;1.40;;;;;;;7.26;70.91;91745.59;6186724;23;20409;-75
2022/04/18 08:54:10;;;;;;;2.80;2.70;;;;;;;7.63;70.39;91779.13;6183840;23;20542;-77
2022/04/18 08:56:37;;;;;;;1.00;1.00;;;;;;;7.26;68.45;91743.09;6184384;23;20599;-77
2022/04/18 08:59:06;;;;;;;2.37;1.93;;;;;;;7.39;67.87;91713.19;6183617;23;20182;-77
2022/04/18 09:01:33;;;;;;;1.97;1.87;;;;;;;8.01;68.19;91794.97;6183978;23;20212;-77
2022/04/18 09:04:01;;;;;;;2.73;2.60;;;;;;;8.18;68.15;91795.00;6183994;23;20587;-77
2022/04/18 09:06:31;;;;;;;1.97;1.60;;;;;;;8.36;67.45;91778.25;6182530;23;20562;-77
2022/04/18 09:09:01;;;;;;;1.57;1.57;;;;;;;8.07;65.76;91772.88;6182364;23;20492;-77
2022/04/18 09:11:30;;;;;;;5.47;4.97;;;;;;;8.33;67.23;91781.75;6182194;23;20551;-77
2022/04/18 09:14:06;;;;;;;3.80;3.60;;;;;;;8.21;64.80;91772.22;6183499;23;20651;-77
2022/04/18 09:16:35;;;;;;;6.57;5.90;;;;;;;8.52;65.01;91801.78;6184261;23;20503;-78
2022/04/18 09:19:09;;;;;;;4.40;4.00;;;;;;;8.14;66.70;91697.94;6184326;23;20470;-77
2022/04/18 09:21:36;;;;;;;2.53;2.43;;;;;;;8.51;69.05;91732.19;6184466;23;20577;-75
2022/04/18 09:24:05;;;;;;;3.47;2.40;;;;;;;8.69;67.30;91732.13;6184443;23;20577;-77
2022/04/18 09:26:33;;;;;;;124.33;51.13;;;;;;;9.02;68.63;91753.97;6185133;23;20159;-77
2022/04/18 09:29:08;;;;;;;14.33;10.47;;;;;;;9.22;66.62;91760.53;6184466;23;20531;-77
2022/04/18 09:31:42;;;;;;;2.30;2.20;;;;;;;9.26;66.16;91797.28;6184929;23;20643;-77
2022/04/18 09:34:09;;;;;;;3.63;3.43;;;;;;;8.92;67.30;91772.97;6184655;23;20447;-77
2022/04/18 09:36:37;;;;;;;7.50;5.83;;;;;;;8.85;65.38;91781.72;6184267;23;20177;-77
2022/04/18 09:39:04;;;;;;;25.60;12.23;;;;;;;9.00;65.01;91775.94;6184191;23;20471;-77
2022/04/18 09:41:33;;;;;;;4.47;3.93;;;;;;;9.41;65.93;91796.47;6184717;23;20603;-77
2022/04/18 09:44:01;;;;;;;13.80;10.80;;;;;;;8.92;67.98;91708.28;6184377;23;20386;-77
2022/04/18 09:46:29;;;;;;;6.80;6.17;;;;;;;9.50;65.92;91788.47;6185643;23;20549;-77
2022/04/18 09:49:02;;;;;;;3.13;3.03;;;;;;;9.46;64.97;91795.34;6184528;23;20595;-77
2022/04/18 09:51:34;;;;;;;5.07;4.60;;;;;;;8.99;65.49;91707.09;6186618;23;20542;-77
2022/04/18 09:54:05;;;;;;;4.27;4.07;;;;;;;8.83;65.79;91711.28;6184116;23;20601;-77
2022/04/18 09:56:32;;;;;;;3.53;3.23;;;;;;;9.41;66.37;91779.66;6185316;23;20177;-77
2022/04/18 09:58:59;;;;;;;3.20;3.07;;;;;;;9.44;66.50;91766.91;6184123;23;20465;-76
2022/04/18 10:01:27;;;;;;;3.47;3.23;;;;;;;9.62;64.07;91792.88;6184923;23;20558;-78
2022/04/18 10:03:57;;;;;;;4.00;2.43;;;;;;;9.78;63.66;91798.72;6184104;23;20527;-77
2022/04/18 10:06:24;;;;;;;2.53;2.33;;;;;;;9.02;63.86;91722.03;6184938;23;20425;-77
2022/04/18 10:08:52;;;;;;;3.70;3.50;;;;;;;9.65;65.37;91766.66;6184097;23;20550;-77
2022/04/18 10:11:20;;;;;;;3.13;2.90;;;;;;;9.97;64.18;91791.78;6184241;23;20466;-77
2022/04/18 10:13:48;;;;;;;3.33;3.13;;;;;;;10.26;63.15;91802.06;6184140;23;20182;-76
2022/04/18 10:16:17;;;;;;;2.80;2.70;;;;;;;10.48;63.00;91797.44;6184769;23;20398;-77
2022/04/18 10:18:50;;;;;;;1.67;1.67;;;;;;;10.27;61.97;91753.19;6183887;23;20197;-76
2022/04/18 10:21:29;;;;;;;2.30;2.20;;;;;;;10.50;60.17;91767.88;6184322;23;20402;-77
2022/04/18 10:24:37;;;;;;;3.70;3.50;;;;;;;10.83;60.09;91818.22;6183812;23;20559;-77
2022/04/18 10:27:45;;;;;;;11.67;8.00;;;;;;;10.48;60.63;91776.47;6182625;23;20538;-76
2022/04/18 10:30:14;;;;;;;6.93;6.20;;;;;;;10.48;61.26;91756.25;6182919;23;20546;-77
2022/04/18 10:32:42;;;;;;;3.27;2.97;;;;;;;10.63;61.15;91800.84;6185725;23;20489;-76
2022/04/18 10:35:14;;;;;;;2.43;2.03;;;;;;;10.64;59.21;91792.38;6184437;23;20473;-77
2022/04/18 10:37:44;;;;;;;30.33;12.40;;;;;;;10.79;57.66;91817.59;6184124;23;20414;-77
2022/04/18 10:40:12;;;;;;;1.80;1.70;;;;;;;10.29;57.88;91809.47;6185203;23;20614;-77
2022/04/18 10:42:42;;;;;;;0.93;0.93;;;;;;;10.49;59.33;91795.75;6186075;23;20261;-77
2022/04/18 10:45:11;;;;;;;1.23;1.23;;;;;;;10.27;58.71;91806.22;6187014;23;20460;-77
2022/04/18 10:48:08;;;;;;;3.13;2.83;;;;;;;10.28;59.17;91793.50;6185974;23;20463;-77
2022/04/18 10:50:38;;;;;;;14.77;8.63;;;;;;;10.20;60.67;91775.44;6185946;23;20539;-78
2022/04/18 10:53:19;;;;;;;5.30;4.97;;;;;;;10.42;62.34;91775.09;6185339;23;20572;-77
2022/04/18 10:56:12;;;;;;;2.40;2.20;;;;;;;10.41;63.33;91768.41;6186181;23;20163;-77
2022/04/18 10:58:43;;;;;;;1.63;1.53;;;;;;;10.17;63.21;91773.09;6183499;23;20178;-77
2022/04/18 11:01:11;;;;;;;1.80;1.70;;;;;;;9.72;63.41;91751.13;6186649;23;20401;-77
2022/04/18 11:03:55;;;;;;;1.20;1.20;;;;;;;9.77;63.36;91773.59;6185845;23;20258;-77
2022/04/18 11:06:51;;;;;;;1.23;1.23;;;;;;;9.78;64.95;91763.41;6186096;23;20155;-77
2022/04/18 11:09:26;;;;;;;1.90;1.80;;;;;;;9.72;66.62;91748.59;6185333;23;20391;-77
2022/04/18 11:12:05;;;;;;;1.93;1.83;;;;;;;10.07;66.60;91751.75;6185559;23;20491;-77
2022/04/18 11:14:50;;;;;;;1.80;1.50;;;;;;;10.29;64.19;91716.06;6185845;23;20417;-77
2022/04/18 11:17:27;;;;;;;1.83;1.67;;;;;;;11.03;62.59;91762.31;6187206;23;20453;-77
2022/04/18 11:19:55;;;;;;;1.80;1.70;;;;;;;11.35;63.57;91765.47;6185749;23;20650;-76
2022/04/18 11:22:23;;;;;;;1.33;1.33;;;;;;;11.29;60.66;91750.66;6185423;23;20500;-77
2022/04/18 11:25:12;;;;;;;1.80;1.70;;;;;;;11.61;58.75;91774.03;6185339;23;20505;-77
2022/04/18 11:27:41;;;;;;;2.23;2.13;;;;;;;11.95;57.09;91801.47;6185575;23;20225;-77
2022/04/18 11:30:13;;;;;;;1.70;1.70;;;;;;;12.03;55.22;91804.38;6187944;23;20366;-77
2022/04/18 11:32:44;;;;;;;2.90;2.20;;;;;;;12.22;57.00;91783.81;6186423;23;20523;-77
2022/04/18 11:35:12;;;;;;;2.00;1.87;;;;;;;12.04;54.13;91818.66;6186266;23;20514;-76
2022/04/18 11:37:43;;;;;;;4.07;3.67;;;;;;;11.94;56.66;91778.81;6187408;23;20158;-77
2022/04/18 11:40:14;;;;;;;4.70;4.00;;;;;;;12.01;57.53;91775.78;6186195;23;20419;-76
2022/04/18 11:42:42;;;;;;;4.77;4.00;;;;;;;12.01;59.14;91754.72;6185712;23;20508;-77
2022/04/18 11:45:12;;;;;;;5.50;5.10;;;;;;;11.87;59.94;91734.53;6185763;23;20555;-75
2022/04/18 11:47:43;;;;;;;7.70;3.77;;;;;;;11.80;59.70;91723.97;6186546;23;20650;-76
2022/04/18 11:50:11;;;;;;;2.70;2.60;;;;;;;12.12;58.80;91742.22;6185328;23;20428;-75
2022/04/18 11:52:40;;;;;;;7.47;5.80;;;;;;;12.17;57.81;91772.34;6185737;23;20416;-75
2022/04/18 11:55:11;;;;;;;4.67;3.67;;;;;;;12.35;58.29;91763.56;6185391;23;20583;-76
2022/04/18 11:57:41;;;;;;;1.73;1.63;;;;;;;11.84;59.62;91692.50;6185541;23;20444;-75
2022/04/18 12:00:11;;;;;;;0.93;0.93;;;;;;;12.17;57.45;91762.22;6186184;23;20469;-77